Time;durP1;ratioP1;P1;durP2;ratioP2;P2;SDS_P1;SDS_P2;PMS_P1;PMS_P2;Temp;Humidity;BMP_temperature;BMP_pressure;BME280_temperature;BME280_humidity;BME280_pressure;Samples;Min_cycle;Max_cycle;Signal;HPM_P1;HPM_P2
2022/03/23 00:01:00;;;;;;;70.95;33.85;;;;;;;11.34;59.26;103153.09;5016931;28;20535;-57
2022/03/23 00:03:26;;;;;;;67.35;33.05;;;;;;;11.31;59.25;103147.69;5027801;28;20037;-57
2022/03/23 00:05:52;;;;;;;67.53;32.30;;;;;;;11.24;59.43;103151.75;5014625;28;20194;-59
2022/03/23 00:08:19;;;;;;;73.53;33.28;;;;;;;11.18;59.85;103151.47;5030352;28;20068;-58
2022/03/23 00:10:48;;;;;;;70.78;33.60;;;;;;;11.10;59.69;103154.56;5012895;28;20704;-59
2022/03/23 00:13:14;;;;;;;64.57;32.58;;;;;;;11.03;60.08;103157.69;5013428;28;20136;-59
2022/03/23 00:15:40;;;;;;;67.95;32.22;;;;;;;10.96;60.47;103157.38;5022060;28;20044;-58
2022/03/23 00:18:06;;;;;;;70.45;33.70;;;;;;;10.88;60.22;103153.50;5019170;28;20044;-59
2022/03/23 00:20:32;;;;;;;66.60;31.42;;;;;;;10.84;60.18;103156.81;5016001;28;20045;-58
2022/03/23 00:22:57;;;;;;;74.95;33.85;;;;;;;10.75;60.70;103152.81;5024273;28;20036;-57
2022/03/23 00:25:23;;;;;;;72.18;33.78;;;;;;;10.69;60.95;103155.13;5017252;28;20041;-59
2022/03/23 00:27:48;;;;;;;73.95;33.50;;;;;;;10.62;61.03;103148.72;5026958;28;20037;-58
2022/03/23 00:30:14;;;;;;;70.70;33.28;;;;;;;10.56;61.37;103149.31;5017303;28;20053;-59
2022/03/23 00:32:39;;;;;;;67.90;33.30;;;;;;;10.53;61.31;103140.47;4999979;28;20867;-59
2022/03/23 00:35:05;;;;;;;64.75;32.40;;;;;;;10.48;61.36;103149.78;5020974;28;20044;-59
2022/03/23 00:37:30;;;;;;;71.95;31.77;;;;;;;10.46;61.58;103148.78;5025433;28;20156;-54
2022/03/23 00:39:56;;;;;;;67.18;32.47;;;;;;;10.43;61.76;103152.13;5011818;28;20052;-57
2022/03/23 00:42:22;;;;;;;70.65;32.72;;;;;;;10.39;62.13;103152.81;5015229;28;20053;-53
2022/03/23 00:44:47;;;;;;;67.45;33.53;;;;;;;10.35;61.86;103153.47;5014850;28;20381;-55
2022/03/23 00:47:12;;;;;;;69.13;31.55;;;;;;;10.30;61.96;103151.47;5018154;28;20124;-60
2022/03/23 00:49:38;;;;;;;68.25;32.95;;;;;;;10.27;62.10;103151.28;5011479;28;20044;-55
2022/03/23 00:52:07;;;;;;;67.43;32.60;;;;;;;10.22;62.39;103145.84;5021699;28;20631;-58
2022/03/23 00:54:34;;;;;;;71.95;32.58;;;;;;;10.19;62.02;103148.28;5008453;28;20048;-55
2022/03/23 00:57:02;;;;;;;66.90;32.70;;;;;;;10.15;62.18;103151.53;5015902;28;20036;-56
2022/03/23 00:59:30;;;;;;;73.45;33.28;;;;;;;10.11;62.48;103147.88;5012440;28;20492;-57
2022/03/23 01:01:56;;;;;;;70.70;32.67;;;;;;;10.07;62.46;103145.00;5023122;28;20072;-57
2022/03/23 01:04:23;;;;;;;68.97;33.42;;;;;;;10.03;62.72;103151.78;5019908;28;20890;-57
2022/03/23 01:06:49;;;;;;;71.50;33.47;;;;;;;9.99;62.72;103142.03;5013273;28;20044;-54
2022/03/23 01:09:14;;;;;;;71.30;33.80;;;;;;;9.97;62.47;103142.75;5022596;28;20421;-57
2022/03/23 01:11:40;;;;;;;72.50;34.42;;;;;;;9.95;62.73;103145.28;5012760;28;20041;-55
2022/03/23 01:14:07;;;;;;;71.32;33.70;;;;;;;9.91;62.97;103140.75;5018691;28;20049;-56
2022/03/23 01:16:36;;;;;;;75.00;34.30;;;;;;;9.91;63.23;103142.44;5007070;28;20406;-56
2022/03/23 01:19:02;;;;;;;73.53;34.42;;;;;;;9.86;63.24;103138.72;5019253;28;20045;-56
2022/03/23 01:21:28;;;;;;;74.00;33.60;;;;;;;9.85;62.91;103144.72;5015157;28;20071;-57
2022/03/23 01:23:54;;;;;;;70.55;32.80;;;;;;;9.82;63.20;103144.59;5009598;28;20831;-57
2022/03/23 01:26:20;;;;;;;76.50;34.00;;;;;;;9.80;63.32;103146.19;5017343;28;20955;-57
2022/03/23 01:28:47;;;;;;;69.72;33.53;;;;;;;9.76;63.37;103139.91;5016425;28;20360;-56
2022/03/23 01:31:12;;;;;;;70.22;32.90;;;;;;;9.73;63.04;103134.56;5024224;28;20504;-56
2022/03/23 01:33:38;;;;;;;65.55;32.50;;;;;;;9.72;63.02;103137.97;5011180;28;20527;-58
2022/03/23 01:36:03;;;;;;;71.47;33.22;;;;;;;9.73;63.31;103132.84;5024628;28;20050;-55
2022/03/23 01:38:29;;;;;;;71.90;33.28;;;;;;;9.69;63.26;103135.22;5015816;28;20041;-57
2022/03/23 01:40:55;;;;;;;69.85;32.97;;;;;;;9.66;63.43;103132.44;5007193;28;20045;-56
2022/03/23 01:43:20;;;;;;;67.85;32.63;;;;;;;9.65;63.55;103133.25;5025023;28;20037;-56
2022/03/23 01:45:46;;;;;;;76.78;33.88;;;;;;;9.61;63.62;103132.22;5018237;28;20560;-56
2022/03/23 01:48:11;;;;;;;67.97;33.33;;;;;;;9.58;63.50;103133.72;5018783;28;20537;-56
2022/03/23 01:50:37;;;;;;;73.32;32.55;;;;;;;9.56;63.37;103125.88;5013001;28;20045;-56
2022/03/23 01:53:03;;;;;;;64.70;32.60;;;;;;;9.55;63.67;103130.97;5016282;28;20045;-56
2022/03/23 01:55:28;;;;;;;66.93;32.55;;;;;;;9.52;63.79;103129.09;5021618;28;20052;-57
2022/03/23 01:57:54;;;;;;;68.25;32.63;;;;;;;9.51;63.50;103123.84;5009287;28;20067;-56
2022/03/23 02:00:21;;;;;;;67.95;32.63;;;;;;;9.48;64.13;103121.94;5022156;28;20558;-56
2022/03/23 02:02:47;;;;;;;68.63;32.42;;;;;;;9.46;63.69;103120.06;5008871;28;20041;-55
2022/03/23 02:05:13;;;;;;;63.70;31.70;;;;;;;9.44;63.93;103124.31;5022109;28;20487;-56
2022/03/23 02:07:39;;;;;;;68.78;33.13;;;;;;;9.40;63.66;103125.84;5021727;28;20033;-55
2022/03/23 02:10:08;;;;;;;68.95;31.63;;;;;;;9.39;64.08;103120.56;5010988;28;20067;-56
2022/03/23 02:12:34;;;;;;;68.40;32.17;;;;;;;9.35;64.00;103120.38;5012105;28;20152;-56
2022/03/23 02:15:09;;;;;;;68.53;33.05;;;;;;;9.34;63.65;103120.31;5014331;28;20101;-58
2022/03/23 02:17:34;;;;;;;69.93;32.60;;;;;;;9.33;63.97;103110.72;5015280;28;20523;-59
2022/03/23 02:20:00;;;;;;;66.70;32.20;;;;;;;9.31;63.67;103114.94;5018976;28;20049;-58
2022/03/23 02:22:26;;;;;;;64.68;31.55;;;;;;;9.30;63.86;103115.75;5018009;28;20064;-60
2022/03/23 02:24:52;;;;;;;70.85;32.72;;;;;;;9.25;64.33;103115.50;5009081;28;20148;-57
2022/03/23 02:27:18;;;;;;;74.40;32.78;;;;;;;9.22;64.46;103117.94;5015422;28;20516;-57
2022/03/23 02:29:44;;;;;;;62.70;32.13;;;;;;;9.20;64.22;103121.28;5012214;28;20076;-57
2022/03/23 02:32:10;;;;;;;68.22;32.63;;;;;;;9.16;64.09;103120.19;5016849;28;20516;-57
2022/03/23 02:34:35;;;;;;;64.25;31.25;;;;;;;9.16;63.99;103117.59;5014309;28;20547;-56
2022/03/23 02:37:01;;;;;;;70.07;33.67;;;;;;;9.13;64.32;103116.56;5014196;28;20040;-57
2022/03/23 02:39:26;;;;;;;66.45;31.73;;;;;;;9.09;64.44;103109.41;5021737;28;20056;-57
2022/03/23 02:41:53;;;;;;;66.28;31.55;;;;;;;9.05;64.50;103110.03;5015042;28;20045;-57
2022/03/23 02:44:20;;;;;;;66.57;31.90;;;;;;;9.02;64.21;103117.66;5006112;28;20041;-59
2022/03/23 02:46:46;;;;;;;66.25;32.20;;;;;;;8.93;64.26;103118.94;5013397;28;20141;-57
2022/03/23 02:49:18;;;;;;;69.50;32.88;;;;;;;8.92;64.69;103108.44;5018481;28;20131;-57
2022/03/23 02:51:43;;;;;;;64.10;32.22;;;;;;;8.97;64.65;103109.59;5014473;28;20037;-57
2022/03/23 03:02:48;;;;;;;68.07;31.23;;;;;;;8.90;64.73;103117.88;5020629;28;20190;-57
2022/03/23 03:05:13;;;;;;;67.22;31.48;;;;;;;8.86;64.56;103116.81;5007886;28;20781;-58
2022/03/23 03:10:25;;;;;;;65.45;31.35;;;;;;;8.75;65.10;103123.13;5012837;28;20194;-59
2022/03/23 03:12:51;;;;;;;69.03;31.38;;;;;;;8.74;64.87;103125.63;5014091;28;20094;-59
2022/03/23 03:15:19;;;;;;;62.70;30.52;;;;;;;8.78;64.84;103118.06;5015027;28;20073;-56
2022/03/23 03:17:46;;;;;;;67.00;31.98;;;;;;;8.74;65.12;103128.22;5014344;28;20387;-59
2022/03/23 03:20:14;;;;;;;66.20;31.33;;;;;;;8.72;64.91;103122.91;5021200;28;20151;-57
2022/03/23 03:22:40;;;;;;;63.88;31.33;;;;;;;8.67;65.28;103129.56;5008686;28;20590;-57
2022/03/23 03:25:07;;;;;;;64.50;30.27;;;;;;;8.65;65.11;103126.00;5017282;28;20053;-59
2022/03/23 03:27:34;;;;;;;62.03;30.70;;;;;;;8.66;65.30;103124.31;5019313;28;20780;-59
2022/03/23 03:30:02;;;;;;;67.28;31.38;;;;;;;8.62;65.29;103133.63;5011549;28;20118;-58
2022/03/23 03:32:27;;;;;;;62.78;30.15;;;;;;;8.64;65.65;103132.03;5013621;28;20037;-56
2022/03/23 03:34:53;;;;;;;64.75;30.33;;;;;;;8.65;65.44;103130.31;5012583;28;20044;-56
2022/03/23 03:37:18;;;;;;;65.32;31.30;;;;;;;8.63;65.35;103130.22;5026112;28;20056;-58
2022/03/23 03:39:43;;;;;;;65.35;31.42;;;;;;;8.64;65.72;103125.91;5024342;28;20487;-58
2022/03/23 03:42:09;;;;;;;69.55;30.70;;;;;;;8.63;65.56;103131.91;5025322;28;20301;-58
2022/03/23 03:44:34;;;;;;;64.72;31.77;;;;;;;8.61;65.28;103126.63;5014401;28;20056;-57
2022/03/23 03:46:59;;;;;;;62.47;30.35;;;;;;;8.59;65.69;103132.56;5023401;28;20021;-58
2022/03/23 03:49:25;;;;;;;62.50;30.80;;;;;;;8.56;65.70;103141.06;5023224;28;20041;-56
2022/03/23 03:51:50;;;;;;;66.50;30.88;;;;;;;8.51;65.62;103134.72;5014179;28;20330;-56
2022/03/23 03:54:15;;;;;;;62.63;30.92;;;;;;;8.48;65.94;103140.63;5017935;28;20048;-57
2022/03/23 03:56:41;;;;;;;65.43;31.35;;;;;;;8.46;65.68;103139.66;5009748;28;20805;-57
2022/03/23 03:59:06;;;;;;;64.60;31.67;;;;;;;8.37;65.73;103136.50;5019552;28;20527;-59
2022/03/23 04:01:31;;;;;;;65.95;31.48;;;;;;;8.35;65.60;103142.44;5020659;28;20072;-58
2022/03/23 04:03:56;;;;;;;65.13;31.67;;;;;;;8.39;65.51;103134.91;5023268;28;20036;-57
2022/03/23 04:06:22;;;;;;;62.13;30.83;;;;;;;8.34;65.79;103138.94;5019157;28;20048;-56
2022/03/23 04:08:47;;;;;;;62.78;32.25;;;;;;;8.28;66.08;103143.75;5016247;28;20045;-57
2022/03/23 04:11:12;;;;;;;64.75;31.30;;;;;;;8.30;65.44;103136.97;5020119;28;20174;-57
2022/03/23 04:13:39;;;;;;;69.90;31.90;;;;;;;8.28;66.00;103148.06;5023222;28;20047;-56
2022/03/23 04:16:04;;;;;;;63.15;31.00;;;;;;;8.23;66.42;103142.59;5023602;28;20082;-56
2022/03/23 04:18:30;;;;;;;66.22;31.38;;;;;;;8.20;66.05;103149.28;5010582;28;20033;-57
2022/03/23 04:20:55;;;;;;;65.45;31.30;;;;;;;8.17;66.30;103146.53;5015263;28;20047;-59
2022/03/23 04:23:21;;;;;;;64.70;31.27;;;;;;;8.13;66.30;103153.22;5017909;28;20966;-57
2022/03/23 04:25:47;;;;;;;61.03;30.58;;;;;;;8.15;66.18;103146.44;5023026;28;20728;-60
2022/03/23 04:28:12;;;;;;;62.53;29.92;;;;;;;8.14;65.82;103152.44;5026750;28;20049;-57
2022/03/23 04:30:38;;;;;;;62.38;29.77;;;;;;;8.09;66.41;103148.66;5022446;28;20115;-58
2022/03/23 04:33:03;;;;;;;60.95;30.17;;;;;;;8.04;66.45;103144.91;5020235;28;20091;-57
2022/03/23 04:35:28;;;;;;;64.15;30.38;;;;;;;8.02;66.35;103151.69;5024550;28;20128;-57
2022/03/23 04:37:54;;;;;;;60.17;30.92;;;;;;;7.97;65.86;103154.03;5021282;28;20040;-59
2022/03/23 04:40:22;;;;;;;57.60;29.58;;;;;;;7.92;66.30;103150.25;5017525;28;20068;-58
2022/03/23 04:42:48;;;;;;;62.78;30.67;;;;;;;7.93;66.38;103153.75;5018137;28;20189;-56
2022/03/23 04:45:13;;;;;;;61.65;30.02;;;;;;;7.93;66.14;103154.63;5024875;28;20053;-56
2022/03/23 04:47:39;;;;;;;65.60;30.38;;;;;;;7.87;66.32;103150.78;5018758;28;20036;-59
2022/03/23 04:50:07;;;;;;;60.95;29.67;;;;;;;7.86;66.47;103156.78;5019028;28;20168;-56
2022/03/23 04:52:33;;;;;;;61.80;29.67;;;;;;;7.84;66.29;103156.69;5004866;28;20144;-59
2022/03/23 04:54:58;;;;;;;57.10;28.73;;;;;;;7.83;66.39;103160.06;5019368;28;20680;-59
2022/03/23 04:57:25;;;;;;;60.63;29.73;;;;;;;7.81;66.33;103159.06;5014203;28;20177;-57
2022/03/23 04:59:51;;;;;;;57.78;29.40;;;;;;;7.79;66.91;103162.41;5020860;28;20085;-58
2022/03/23 05:02:17;;;;;;;60.20;30.23;;;;;;;7.75;66.57;103158.69;5020637;28;20148;-58
2022/03/23 05:04:43;;;;;;;62.35;29.58;;;;;;;7.73;66.79;103161.22;5010365;28;20256;-59
2022/03/23 05:07:08;;;;;;;59.13;28.90;;;;;;;7.69;66.64;103159.22;5024521;28;20059;-56
2022/03/23 05:09:34;;;;;;;61.28;30.73;;;;;;;7.67;66.62;103166.03;5021539;28;20090;-58
2022/03/23 05:11:59;;;;;;;58.85;29.15;;;;;;;7.66;66.76;103164.25;5019375;28;20146;-56
2022/03/23 05:14:27;;;;;;;58.78;29.88;;;;;;;7.65;66.72;103166.75;5013669;28;20056;-56
2022/03/23 05:16:53;;;;;;;59.80;28.90;;;;;;;7.62;66.62;103174.34;5007747;28;20025;-58
2022/03/23 05:19:18;;;;;;;60.45;29.38;;;;;;;7.62;66.62;103171.75;5018836;28;20091;-56
2022/03/23 05:21:43;;;;;;;61.85;30.25;;;;;;;7.57;66.90;103170.56;5022889;28;20391;-58
2022/03/23 05:24:09;;;;;;;61.92;30.15;;;;;;;7.57;66.98;103173.16;5021069;28;20073;-59
2022/03/23 05:26:34;;;;;;;59.35;29.75;;;;;;;7.53;66.36;103166.88;5002656;28;20128;-57
2022/03/23 05:29:00;;;;;;;63.67;30.17;;;;;;;7.53;66.95;103171.19;5017097;28;20493;-58
2022/03/23 05:31:25;;;;;;;61.92;29.63;;;;;;;7.54;66.79;103176.47;5017304;28;20033;-55
2022/03/23 05:33:50;;;;;;;65.72;30.75;;;;;;;7.51;67.16;103175.38;5022126;28;20277;-58
2022/03/23 05:36:17;;;;;;;57.97;28.70;;;;;;;7.50;67.01;103173.59;5016455;28;20055;-58
2022/03/23 05:38:42;;;;;;;60.60;29.80;;;;;;;7.50;67.19;103171.88;5009397;28;20303;-58
2022/03/23 05:41:08;;;;;;;59.00;29.00;;;;;;;7.53;67.31;103169.47;5016811;28;20060;-56
2022/03/23 05:43:33;;;;;;;59.50;29.30;;;;;;;7.53;67.61;103172.06;5021387;28;20495;-57
2022/03/23 05:45:59;;;;;;;60.15;29.75;;;;;;;7.54;67.65;103168.69;5022088;28;20052;-58
2022/03/23 05:48:24;;;;;;;65.15;29.65;;;;;;;7.60;67.33;103168.16;5008910;28;20571;-56
2022/03/23 05:50:50;;;;;;;60.78;29.75;;;;;;;7.59;67.01;103179.34;5018698;28;20129;-59
2022/03/23 05:53:15;;;;;;;64.82;29.65;;;;;;;7.60;67.56;103182.03;5009898;28;20056;-57
2022/03/23 05:55:40;;;;;;;55.83;29.08;;;;;;;7.69;67.06;103184.28;5026131;28;20040;-56
2022/03/23 05:58:06;;;;;;;64.82;29.10;;;;;;;7.70;67.19;103181.78;5010036;28;20037;-58
2022/03/23 06:00:31;;;;;;;65.53;29.85;;;;;;;7.75;67.57;103179.47;5006844;28;20446;-58
2022/03/23 06:02:56;;;;;;;59.88;28.85;;;;;;;7.82;67.57;103183.34;5013585;28;20600;-57
2022/03/23 06:05:22;;;;;;;61.50;28.95;;;;;;;7.90;67.17;103182.13;5017331;28;20287;-58
2022/03/23 06:07:47;;;;;;;56.55;28.55;;;;;;;7.93;67.02;103183.19;5017458;28;20037;-57
2022/03/23 06:10:13;;;;;;;56.53;29.75;;;;;;;7.99;67.30;103187.91;5020027;28;20105;-59
2022/03/23 06:12:38;;;;;;;58.88;29.45;;;;;;;8.17;66.71;103188.09;5013173;28;20155;-57
2022/03/23 06:15:06;;;;;;;57.10;28.25;;;;;;;8.48;66.05;103182.22;5019303;28;20126;-57
2022/03/23 06:17:31;;;;;;;59.45;28.13;;;;;;;8.84;64.93;103186.03;5013920;28;20136;-57
2022/03/23 06:19:57;;;;;;;57.17;28.10;;;;;;;9.14;63.97;103196.41;5022502;28;20041;-57
2022/03/23 06:22:22;;;;;;;63.25;29.25;;;;;;;9.29;62.70;103185.13;5012081;28;20060;-55
2022/03/23 06:24:48;;;;;;;59.45;28.60;;;;;;;9.48;62.44;103186.16;5012871;28;20136;-58
2022/03/23 06:27:13;;;;;;;57.58;28.65;;;;;;;10.04;61.60;103179.66;5016897;28;20496;-58
2022/03/23 06:29:39;;;;;;;54.95;27.92;;;;;;;10.82;58.76;103179.31;5018436;28;20048;-58
2022/03/23 06:32:04;;;;;;;54.22;27.77;;;;;;;11.48;56.83;103179.81;5008043;28;20037;-59
2022/03/23 06:34:30;;;;;;;53.35;27.38;;;;;;;12.10;55.76;103191.44;5006559;28;20055;-59
2022/03/23 06:36:55;;;;;;;57.58;28.20;;;;;;;12.60;54.28;103184.84;5018746;28;20567;-59
2022/03/23 06:39:20;;;;;;;56.13;28.67;;;;;;;13.16;51.84;103176.72;5012947;28;20491;-58
2022/03/23 06:41:46;;;;;;;54.70;28.45;;;;;;;13.77;50.50;103173.81;5015972;28;20044;-58
2022/03/23 06:44:15;;;;;;;57.20;28.40;;;;;;;14.27;49.24;103173.00;5010165;28;20048;-58
2022/03/23 06:46:41;;;;;;;53.22;28.05;;;;;;;14.63;48.82;103183.88;5000224;28;20246;-58
2022/03/23 06:49:07;;;;;;;44.67;26.13;;;;;;;14.88;48.73;103181.19;5018933;28;20130;-58
2022/03/23 06:51:32;;;;;;;49.33;27.25;;;;;;;15.45;45.52;103178.59;5016058;28;20044;-58
2022/03/23 06:54:03;;;;;;;47.10;27.02;;;;;;;15.68;46.35;103180.22;5020494;28;20127;-66
2022/03/23 06:56:28;;;;;;;49.40;27.23;;;;;;;16.00;45.29;103181.13;5007531;28;20906;-60
2022/03/23 06:58:53;;;;;;;48.92;27.77;;;;;;;16.17;45.11;103178.94;5020433;28;20456;-59
2022/03/23 07:01:20;;;;;;;54.95;27.48;;;;;;;16.44;40.83;103174.41;5012277;28;20051;-57
2022/03/23 07:03:45;;;;;;;49.08;27.15;;;;;;;16.88;40.26;103178.19;5016630;28;20044;-59
2022/03/23 07:06:10;;;;;;;46.30;27.20;;;;;;;17.37;41.01;103176.69;5038006;28;20138;-59
2022/03/23 07:11:19;;;;;;;44.70;26.23;;;;;;;17.82;38.06;103174.13;5014304;28;20047;-58
2022/03/23 07:13:45;;;;;;;45.58;26.48;;;;;;;17.93;37.39;103190.22;5022131;28;20892;-58
2022/03/23 07:16:10;;;;;;;42.67;26.33;;;;;;;17.88;36.42;103186.56;5021116;28;20123;-59
2022/03/23 07:18:35;;;;;;;49.60;26.98;;;;;;;18.25;36.08;103184.66;5000996;28;20402;-59
2022/03/23 07:21:04;;;;;;;50.05;26.77;;;;;;;18.39;37.48;103192.84;5021657;28;20637;-59
2022/03/23 07:23:30;;;;;;;45.53;26.15;;;;;;;18.43;35.63;103199.06;5011939;28;20990;-58
2022/03/23 07:25:55;;;;;;;46.13;25.38;;;;;;;18.18;34.64;103195.06;5018197;28;20276;-58
2022/03/23 07:28:21;;;;;;;45.78;26.30;;;;;;;18.18;37.19;103197.72;5023405;28;20534;-59
2022/03/23 07:30:46;;;;;;;48.88;26.52;;;;;;;18.17;35.94;103204.78;5017269;28;20259;-59
2022/03/23 07:33:12;;;;;;;52.25;26.23;;;;;;;18.20;35.01;103199.53;5011709;28;20068;-61
2022/03/23 07:35:37;;;;;;;51.35;24.95;;;;;;;17.53;37.24;103199.00;5014358;28;20326;-59
2022/03/23 07:38:02;;;;;;;48.47;25.75;;;;;;;18.02;35.02;103199.19;5016236;28;20049;-58
2022/03/23 07:40:28;;;;;;;48.08;25.55;;;;;;;18.25;34.71;103210.19;4999914;28;20069;-59
2022/03/23 07:42:53;;;;;;;51.85;25.40;;;;;;;17.80;35.13;103207.53;5018316;28;20188;-58
2022/03/23 07:45:18;;;;;;;44.67;25.52;;;;;;;17.32;36.16;103210.84;5010643;28;20043;-58
2022/03/23 07:47:44;;;;;;;46.75;26.67;;;;;;;16.72;37.63;103215.53;5020994;28;20041;-59
2022/03/23 07:50:10;;;;;;;48.38;27.00;;;;;;;16.44;39.06;103221.81;5021046;28;20140;-59
2022/03/23 07:52:36;;;;;;;50.53;26.67;;;;;;;16.06;40.29;103219.88;5007841;28;20431;-59
2022/03/23 07:55:01;;;;;;;43.80;26.10;;;;;;;15.59;40.88;103224.66;5017054;28;20040;-57
2022/03/23 07:57:27;;;;;;;48.97;26.45;;;;;;;15.19;41.93;103219.84;5016616;28;20132;-57
2022/03/23 07:59:55;;;;;;;43.45;25.80;;;;;;;15.21;42.32;103225.16;5004203;28;20179;-57
2022/03/23 08:02:24;;;;;;;50.58;26.35;;;;;;;15.49;40.58;103229.56;5011774;28;20051;-59
2022/03/23 08:04:50;;;;;;;46.35;26.33;;;;;;;15.33;42.23;103231.69;5024379;28;20522;-59
2022/03/23 08:07:16;;;;;;;45.17;26.30;;;;;;;15.53;41.60;103231.47;5009299;28;20048;-59
2022/03/23 08:09:41;;;;;;;46.03;25.33;;;;;;;15.56;40.33;103227.16;5019302;28;20604;-59
2022/03/23 08:12:06;;;;;;;56.78;26.17;;;;;;;15.51;41.16;103235.72;5012679;28;20144;-58
2022/03/23 08:14:32;;;;;;;48.05;25.27;;;;;;;15.60;41.44;103233.44;5009042;28;20239;-58
2022/03/23 08:16:57;;;;;;;47.17;25.50;;;;;;;15.49;40.83;103234.81;5023444;28;20073;-58
2022/03/23 08:19:23;;;;;;;44.88;25.27;;;;;;;15.66;40.60;103228.38;5023495;28;20052;-60
2022/03/23 08:21:51;;;;;;;47.97;26.42;;;;;;;15.68;40.27;103234.53;5020112;28;20126;-60
2022/03/23 08:24:17;;;;;;;45.60;24.90;;;;;;;15.90;39.13;103230.81;5022384;28;20045;-59
2022/03/23 08:26:43;;;;;;;49.55;26.63;;;;;;;16.08;39.83;103226.06;5017763;28;20432;-60
2022/03/23 08:29:08;;;;;;;48.67;25.65;;;;;;;16.22;39.20;103230.84;5021219;28;20033;-59
2022/03/23 08:31:34;;;;;;;46.65;25.98;;;;;;;16.23;39.13;103231.75;5020824;28;20041;-59
2022/03/23 08:34:00;;;;;;;48.83;25.80;;;;;;;16.41;38.41;103226.97;5015398;28;20044;-59
2022/03/23 08:36:25;;;;;;;45.35;24.70;;;;;;;16.33;37.49;103222.38;5022535;28;20508;-60
2022/03/23 08:38:51;;;;;;;46.90;25.08;;;;;;;16.63;37.01;103232.03;5024034;28;20060;-58
2022/03/23 08:41:18;;;;;;;44.58;25.77;;;;;;;16.59;36.42;103221.31;5023271;28;20049;-59
2022/03/23 08:43:43;;;;;;;46.30;25.52;;;;;;;16.85;37.44;103224.63;5025360;28;20052;-60
2022/03/23 08:46:13;;;;;;;46.10;25.17;;;;;;;16.97;35.57;103219.66;5028273;28;20379;-59
2022/03/23 08:48:38;;;;;;;45.15;25.58;;;;;;;17.09;35.70;103216.44;5009509;28;20041;-59
2022/03/23 08:51:04;;;;;;;46.35;25.00;;;;;;;17.02;37.13;103218.91;5020649;28;20397;-60
2022/03/23 08:53:31;;;;;;;43.67;24.77;;;;;;;16.95;36.08;103217.03;5017773;28;20175;-59
2022/03/23 08:55:57;;;;;;;45.90;25.23;;;;;;;17.16;35.98;103223.63;5019966;28;20049;-60
2022/03/23 08:58:23;;;;;;;42.28;24.48;;;;;;;17.15;35.78;103224.50;5018847;28;20131;-59
2022/03/23 09:00:49;;;;;;;41.58;24.90;;;;;;;17.27;34.27;103224.78;5008478;28;20079;-59
2022/03/23 09:03:14;;;;;;;46.20;24.88;;;;;;;17.35;35.19;103223.22;5010700;28;20032;-60
2022/03/23 09:05:40;;;;;;;43.00;24.60;;;;;;;17.38;34.94;103224.16;5016786;28;20044;-60
2022/03/23 09:08:07;;;;;;;46.90;25.45;;;;;;;17.38;34.00;103229.44;5016187;28;20048;-59
2022/03/23 09:10:32;;;;;;;43.45;24.50;;;;;;;17.54;34.03;103225.41;5013817;28;20437;-60
2022/03/23 09:12:57;;;;;;;42.97;25.60;;;;;;;17.56;33.77;103221.06;5008977;28;20496;-59
2022/03/23 09:15:23;;;;;;;40.28;24.92;;;;;;;17.89;33.48;103227.94;5015002;28;20044;-59
2022/03/23 09:17:48;;;;;;;40.70;23.95;;;;;;;17.84;33.54;103231.38;5016144;28;20029;-59
2022/03/23 09:20:14;;;;;;;47.63;24.95;;;;;;;17.82;33.24;103229.56;5021382;28;20108;-60
2022/03/23 09:22:41;;;;;;;45.15;25.65;;;;;;;17.81;33.14;103218.09;5012180;28;20110;-60
2022/03/23 09:25:12;;;;;;;45.47;25.33;;;;;;;17.89;33.97;103225.28;5017199;28;20482;-58
2022/03/23 09:27:42;;;;;;;43.15;24.95;;;;;;;17.88;33.28;103228.78;5023012;28;20538;-60
2022/03/23 09:30:08;;;;;;;43.70;24.65;;;;;;;18.01;35.17;103228.19;5018272;28;20148;-59
2022/03/23 09:32:34;;;;;;;46.30;24.67;;;;;;;18.15;32.97;103227.59;5008753;28;20048;-58
2022/03/23 09:35:00;;;;;;;43.50;25.10;;;;;;;18.36;34.57;103221.81;5018664;28;20440;-60
2022/03/23 09:40:10;;;;;;;43.95;23.88;;;;;;;18.47;30.29;103222.94;5010568;28;20110;-59
2022/03/23 09:42:36;;;;;;;38.88;23.75;;;;;;;18.11;30.13;103224.88;5011803;28;20443;-60
2022/03/23 09:45:02;;;;;;;42.50;25.17;;;;;;;18.11;30.35;103225.75;5017584;28;20056;-59
2022/03/23 09:47:28;;;;;;;42.60;24.20;;;;;;;18.31;30.49;103220.84;5016140;28;20433;-59
2022/03/23 09:49:53;;;;;;;42.30;25.05;;;;;;;18.42;31.36;103219.28;5015811;28;20089;-59
2022/03/23 09:52:19;;;;;;;46.97;24.42;;;;;;;18.60;30.68;103213.50;5023856;28;20110;-59
2022/03/23 09:54:48;;;;;;;46.33;24.92;;;;;;;18.67;30.78;103222.41;5010409;28;20408;-59
2022/03/23 09:57:13;;;;;;;40.17;25.20;;;;;;;18.27;31.36;103216.38;5011119;28;20508;-59
2022/03/23 09:59:40;;;;;;;43.88;25.85;;;;;;;18.53;31.15;103228.31;5018260;28;20361;-59
2022/03/23 10:02:05;;;;;;;42.15;25.27;;;;;;;18.49;32.03;103222.94;5011258;28;20049;-59
2022/03/23 10:04:49;;;;;;;40.42;24.95;;;;;;;18.70;32.28;103223.38;5009126;28;20087;-59
2022/03/23 10:07:35;;;;;;;46.65;24.92;;;;;;;18.66;31.57;103218.00;5013699;28;20053;-59
2022/03/23 10:10:19;;;;;;;42.72;24.80;;;;;;;18.84;30.76;103223.59;5014031;28;20049;-59
2022/03/23 10:13:22;;;;;;;43.47;26.08;;;;;;;18.62;32.03;103224.97;5003165;28;20071;-59
2022/03/23 10:16:26;;;;;;;42.03;25.05;;;;;;;18.84;31.19;103228.88;5014383;28;20579;-61
2022/03/23 10:18:56;;;;;;;45.63;25.38;;;;;;;18.95;30.62;103219.38;5014364;28;20512;-60
2022/03/23 10:21:33;;;;;;;47.47;26.45;;;;;;;18.87;31.12;103229.81;5029354;28;20519;-61
2022/03/23 10:23:58;;;;;;;46.72;26.85;;;;;;;18.98;30.94;103228.22;5019275;28;20149;-60
2022/03/23 10:26:24;;;;;;;50.50;27.20;;;;;;;19.08;30.80;103224.00;5034549;28;20155;-58
2022/03/23 10:28:51;;;;;;;47.42;26.73;;;;;;;19.02;30.55;103221.25;5010585;28;20349;-59
2022/03/23 10:31:18;;;;;;;42.63;26.63;;;;;;;19.01;30.46;103230.03;5021949;28;20161;-59
2022/03/23 10:33:44;;;;;;;49.83;27.35;;;;;;;19.01;30.93;103222.13;5021045;28;20040;-59
2022/03/23 10:36:11;;;;;;;44.97;27.52;;;;;;;18.99;30.47;103222.09;5013960;28;20044;-59
2022/03/23 10:38:40;;;;;;;49.08;28.00;;;;;;;19.06;31.44;103220.44;5006199;28;20045;-59
2022/03/23 10:41:11;;;;;;;50.25;27.88;;;;;;;19.04;31.45;103216.84;5015515;28;20472;-59
2022/03/23 10:43:38;;;;;;;52.20;27.92;;;;;;;19.03;31.07;103221.25;5018632;28;20425;-59
2022/03/23 10:46:11;;;;;;;50.88;28.35;;;;;;;19.04;33.39;103222.16;5019112;28;20076;-71
2022/03/23 10:48:37;;;;;;;46.10;28.25;;;;;;;19.08;30.66;103213.41;5009696;28;20053;-59
2022/03/23 10:51:03;;;;;;;48.40;28.08;;;;;;;19.31;30.86;103216.41;5003172;28;20765;-58
2022/03/23 10:53:39;;;;;;;50.05;28.65;;;;;;;19.38;30.47;103215.63;5022514;28;20155;-59
2022/03/23 10:56:06;;;;;;;48.65;26.95;;;;;;;19.41;30.21;103216.53;5016157;28;20407;-56
2022/03/23 10:58:32;;;;;;;53.78;27.45;;;;;;;19.50;29.60;103213.19;5013228;28;21421;-56
2022/03/23 11:01:09;;;;;;;50.95;27.17;;;;;;;19.65;29.92;103213.38;5012304;28;20041;-51
2022/03/23 11:03:34;;;;;;;48.45;27.40;;;;;;;19.25;29.57;103219.84;5000948;28;20071;-54
2022/03/23 11:06:00;;;;;;;50.60;27.53;;;;;;;19.38;29.85;103210.34;5017454;28;20045;-57
2022/03/23 11:08:26;;;;;;;47.22;27.25;;;;;;;19.53;29.51;103204.38;5010921;28;20305;-53
2022/03/23 11:16:35;;;;;;;47.55;28.02;;;;;;;19.65;28.93;103220.41;5017674;28;20109;-53
2022/03/23 11:19:10;;;;;;;51.08;28.15;;;;;;;19.64;28.78;103213.38;5020444;28;20051;-53
2022/03/23 11:21:58;;;;;;;49.63;27.55;;;;;;;19.59;29.00;103218.59;5013708;28;20162;-58
2022/03/23 11:24:47;;;;;;;49.08;27.23;;;;;;;19.77;28.81;103215.28;5017332;28;20095;-52
2022/03/23 11:27:18;;;;;;;52.17;27.52;;;;;;;19.80;29.55;103212.69;5014954;28;20103;-56
2022/03/23 11:29:46;;;;;;;46.88;27.10;;;;;;;19.95;29.34;103211.97;5018276;28;20064;-52
2022/03/23 11:32:13;;;;;;;47.75;27.60;;;;;;;19.79;29.27;103221.50;5021142;28;20140;-51